Corea, Maine
Current Conditions -  °F | °C
As of 10:35 PM on Friday 26 Dec 2014 (Local Time) from KBHB Reporting Station
Overcast Overcast  
Wind Chill: 37°   Ceiling: 4400
Heat Index: 37°   Visibility: 10mi
Dew Point: 30°   Wind: 3mph
Humidity: 75%   Direction: 290°WNW
Pressure: 30.06"   Gusts: NA
Location:  44.4°N, 67.98°W
Report Text: KBHB 270335Z AUTO 29003KT 10SM OVC044 03/M01 A3006 RMK AO1
Loading
Personal Weather Stations






























Interactive Weather Map New forecast layout! Learn more

10-Day Weather Forecast

Advertisements
Track Severe Weather on mobile